createdAt,value
2019-03-20T00:00:14.705Z,37.83
2019-03-20T00:02:47.974Z,41.30
2019-03-20T00:05:20.433Z,37.63
2019-03-20T00:07:52.263Z,42.63
2019-03-20T00:10:24.305Z,37.43
2019-03-20T00:12:56.325Z,39.38
2019-03-20T00:15:28.431Z,36.10
2019-03-20T00:18:00.458Z,42.50
2019-03-20T00:20:32.760Z,37.93
2019-03-20T00:23:05.068Z,46.17
2019-03-20T00:25:38.784Z,47.27
2019-03-20T00:28:11.005Z,45.87
2019-03-20T00:30:42.951Z,56.50
2019-03-20T00:33:14.801Z,77.72
2019-03-20T00:35:46.638Z,69.73
2019-03-20T00:38:18.655Z,48.87
2019-03-20T00:40:50.354Z,46.23
2019-03-20T00:43:22.291Z,42.10
2019-03-20T00:45:54.332Z,38.73
2019-03-20T00:48:27.853Z,46.95
2019-03-20T00:50:59.832Z,50.10
2019-03-20T00:53:31.744Z,52.78
2019-03-20T00:56:03.611Z,54.40
2019-03-20T00:58:35.573Z,55.13
2019-03-20T01:01:07.857Z,57.23
2019-03-20T01:03:39.595Z,70.87
2019-03-20T01:06:11.538Z,68.63
2019-03-20T01:08:43.320Z,66.30
2019-03-20T01:11:15.253Z,75.93
2019-03-20T01:13:47.779Z,66.30
2019-03-20T01:16:20.678Z,56.00
2019-03-20T01:18:52.855Z,72.73
2019-03-20T01:21:26.080Z,63.77
2019-03-20T01:23:57.697Z,64.57
2019-03-20T01:26:29.611Z,60.93
2019-03-20T01:29:01.599Z,69.20
2019-03-20T01:31:33.385Z,67.23
2019-03-20T01:34:06.261Z,74.25
2019-03-20T01:36:37.975Z,76.10
2019-03-20T01:39:09.662Z,77.43
2019-03-20T01:41:41.354Z,77.77
2019-03-20T01:44:13.263Z,78.13
2019-03-20T01:46:45.447Z,80.97
2019-03-20T01:49:17.335Z,79.97
2019-03-20T01:51:49.215Z,80.15
2019-03-20T01:54:21.209Z,74.60
2019-03-20T01:56:53.072Z,75.73
2019-03-20T01:59:26.292Z,76.23
2019-03-20T02:01:58.727Z,80.47
2019-03-20T02:04:30.526Z,84.33
2019-03-20T02:07:02.381Z,85.07
2019-03-20T02:09:35.364Z,84.33
2019-03-20T02:12:07.293Z,87.90
2019-03-20T02:14:39.268Z,83.13
2019-03-20T02:17:11.200Z,89.83
2019-03-20T02:19:43.018Z,95.05
2019-03-20T02:22:14.874Z,94.50
2019-03-20T02:24:46.798Z,95.60
2019-03-20T02:27:20.257Z,93.83
2019-03-20T02:29:51.949Z,96.90
2019-03-20T02:32:25.359Z,96.95
2019-03-20T02:34:57.129Z,96.93
2019-03-20T02:37:28.965Z,101.13
2019-03-20T02:40:00.761Z,104.93
2019-03-20T02:42:34.383Z,101.50
2019-03-20T02:45:07.832Z,98.77
2019-03-20T02:47:39.602Z,103.47
2019-03-20T02:50:12.159Z,101.60
2019-03-20T02:52:44.277Z,110.83
2019-03-20T02:55:16.377Z,99.62
2019-03-20T02:57:48.404Z,103.53
2019-03-20T03:00:20.894Z,101.42
2019-03-20T03:02:52.747Z,95.83
2019-03-20T03:05:25.155Z,100.73
2019-03-20T03:07:56.958Z,101.37
2019-03-20T03:10:30.153Z,104.80
2019-03-20T03:13:01.978Z,107.60
2019-03-20T03:15:34.002Z,103.92
2019-03-20T03:18:06.535Z,102.87
2019-03-20T03:20:38.600Z,101.90
2019-03-20T03:23:10.432Z,100.72
2019-03-20T03:25:44.481Z,105.27
2019-03-20T03:28:16.275Z,111.33
2019-03-20T03:30:48.128Z,105.47
2019-03-20T03:33:19.969Z,117.45
2019-03-20T03:35:53.154Z,111.03
2019-03-20T03:38:24.998Z,121.90
2019-03-20T03:40:56.729Z,131.50
2019-03-20T03:43:28.560Z,131.23
2019-03-20T03:46:00.505Z,139.87
2019-03-20T03:48:32.420Z,153.03
2019-03-20T03:51:04.455Z,167.17
2019-03-20T03:53:36.464Z,154.17
2019-03-20T03:56:08.215Z,164.57
2019-03-20T03:58:40.145Z,161.25
2019-03-20T04:01:12.864Z,173.55
2019-03-20T04:03:44.906Z,174.33
2019-03-20T04:06:16.688Z,174.00
2019-03-20T04:08:48.499Z,182.43
2019-03-20T04:11:20.203Z,175.47
2019-03-20T04:13:53.029Z,194.97
2019-03-20T04:16:25.093Z,176.03
2019-03-20T04:18:56.815Z,189.30
2019-03-20T04:21:28.738Z,184.40
2019-03-20T04:24:00.748Z,181.73
2019-03-20T04:26:32.552Z,186.33
2019-03-20T04:29:06.092Z,183.77
2019-03-20T04:31:37.747Z,181.27
2019-03-20T04:34:09.611Z,190.90
2019-03-20T04:36:48.001Z,191.23
2019-03-20T04:39:17.366Z,190.30
2019-03-20T04:41:49.797Z,186.93
2019-03-20T04:44:21.621Z,189.37
2019-03-20T04:46:53.892Z,192.47
2019-03-20T04:49:25.609Z,191.37
2019-03-20T04:51:58.125Z,189.57
2019-03-20T04:54:29.845Z,180.77
2019-03-20T04:57:01.625Z,199.60
2019-03-20T04:59:33.567Z,198.53
2019-03-20T05:02:07.410Z,203.98
2019-03-20T05:04:39.232Z,196.87
2019-03-20T05:07:11.174Z,180.25
2019-03-20T05:09:43.140Z,169.85
2019-03-20T05:12:14.979Z,149.62
2019-03-20T05:14:47.511Z,159.37
2019-03-20T05:17:19.349Z,156.63
2019-03-20T05:19:51.433Z,167.77
2019-03-20T05:22:23.436Z,162.13
2019-03-20T05:24:55.581Z,156.75
2019-03-20T05:27:27.366Z,147.63
2019-03-20T05:29:59.151Z,155.97
2019-03-20T05:32:32.874Z,161.33
2019-03-20T05:35:04.757Z,160.73
2019-03-20T05:37:37.153Z,154.27
2019-03-20T05:40:10.540Z,160.00
2019-03-20T05:42:42.626Z,157.03
2019-03-20T05:45:14.694Z,155.32
2019-03-20T05:47:46.815Z,150.40
2019-03-20T05:50:18.836Z,150.65
2019-03-20T05:52:50.921Z,161.00
2019-03-20T05:55:23.213Z,156.40
2019-03-20T05:57:55.347Z,151.10
2019-03-20T06:00:29.746Z,148.23
2019-03-20T06:03:01.834Z,152.63
2019-03-20T06:05:33.690Z,156.10
2019-03-20T06:08:05.882Z,165.07
2019-03-20T06:10:37.611Z,165.53
2019-03-20T06:13:09.439Z,167.73
2019-03-20T06:15:41.180Z,171.40
2019-03-20T06:18:13.221Z,175.90
2019-03-20T06:20:45.196Z,179.57
2019-03-20T06:23:16.969Z,183.50
2019-03-20T06:25:51.318Z,184.33
2019-03-20T06:28:22.609Z,179.80
2019-03-20T06:30:54.488Z,167.27
2019-03-20T06:33:26.707Z,169.40
2019-03-20T06:35:58.741Z,179.83
2019-03-20T06:38:30.995Z,176.10
2019-03-20T06:41:02.864Z,169.10
2019-03-20T06:43:34.589Z,175.27
2019-03-20T06:46:06.846Z,173.30
2019-03-20T06:48:38.645Z,166.13
2019-03-20T06:51:11.570Z,174.82
2019-03-20T06:53:43.543Z,164.77
2019-03-20T06:56:15.831Z,163.22
2019-03-20T06:58:47.834Z,163.77
2019-03-20T07:01:26.911Z,149.27
2019-03-20T07:04:32.674Z,151.13
2019-03-20T07:07:11.710Z,152.93
2019-03-20T07:10:14.545Z,138.03
2019-03-20T07:12:46.447Z,141.77
2019-03-20T07:15:18.282Z,137.32
2019-03-20T07:17:50.078Z,144.13
2019-03-20T07:20:22.009Z,146.10
2019-03-20T07:22:54.152Z,148.10
2019-03-20T07:25:26.240Z,138.03
2019-03-20T07:27:58.345Z,137.20
2019-03-20T07:30:30.835Z,122.05
2019-03-20T07:33:02.931Z,116.00
2019-03-20T07:35:34.552Z,123.33
2019-03-20T07:38:06.305Z,112.97
2019-03-20T07:40:40.836Z,119.30
2019-03-20T07:43:12.677Z,115.67
2019-03-20T07:45:44.700Z,120.53
2019-03-20T07:48:22.052Z,127.87
2019-03-20T07:50:50.175Z,128.27
2019-03-20T07:53:22.543Z,110.93
2019-03-20T07:55:54.431Z,125.70
2019-03-20T07:58:26.274Z,124.53
2019-03-20T08:00:58.193Z,120.67
2019-03-20T08:03:30.120Z,111.40
2019-03-20T08:06:01.733Z,115.90
2019-03-20T08:08:33.353Z,97.20
2019-03-20T08:11:05.092Z,116.97
2019-03-20T08:13:36.766Z,99.40
2019-03-20T08:16:08.584Z,104.67
2019-03-20T08:18:40.534Z,87.87
2019-03-20T08:21:14.094Z,94.03
2019-03-20T08:23:45.768Z,88.10
2019-03-20T08:26:17.740Z,59.87
2019-03-20T08:28:49.400Z,77.63
2019-03-20T08:31:21.279Z,78.42
2019-03-20T08:33:56.203Z,73.00
2019-03-20T08:36:28.015Z,84.70
2019-03-20T08:38:59.794Z,77.77
2019-03-20T08:41:31.862Z,78.93
2019-03-20T08:44:04.210Z,71.90
2019-03-20T08:46:36.511Z,57.77
2019-03-20T08:49:08.476Z,69.57
2019-03-20T08:51:40.473Z,65.27
2019-03-20T08:54:12.365Z,63.02
2019-03-20T08:56:44.380Z,58.93
2019-03-20T08:59:18.154Z,51.73
2019-03-20T09:01:51.630Z,49.70
2019-03-20T09:04:23.578Z,52.23
2019-03-20T09:06:55.528Z,46.37
2019-03-20T09:09:27.467Z,28.20
2019-03-20T09:11:59.191Z,43.43
2019-03-20T09:14:30.949Z,39.73
2019-03-20T09:17:02.976Z,31.90
2019-03-20T09:19:34.944Z,24.40
2019-03-20T09:22:07.086Z,31.67
2019-03-20T09:24:38.920Z,38.77
2019-03-20T09:27:12.000Z,37.05
2019-03-20T09:29:43.688Z,34.35
2019-03-20T09:32:15.587Z,30.50
2019-03-20T09:34:47.311Z,33.27
2019-03-20T09:37:19.242Z,31.67
2019-03-20T09:39:51.263Z,34.23
2019-03-20T09:42:23.338Z,32.13
2019-03-20T09:44:55.384Z,22.77
2019-03-20T09:47:27.214Z,24.43
2019-03-20T09:49:58.986Z,26.43
2019-03-20T09:52:32.281Z,17.63
2019-03-20T09:55:04.750Z,15.50
2019-03-20T09:57:36.886Z,24.03
2019-03-20T10:00:15.423Z,26.80
2019-03-20T10:02:48.378Z,26.93
2019-03-20T10:05:20.959Z,24.05
2019-03-20T10:07:52.653Z,22.80
2019-03-20T10:10:24.629Z,21.73
2019-03-20T10:12:56.760Z,19.90
2019-03-20T10:15:29.069Z,21.33
2019-03-20T10:18:01.160Z,21.83
2019-03-20T10:20:33.326Z,23.18
2019-03-20T10:23:06.598Z,21.30
2019-03-20T10:25:44.500Z,23.50
2019-03-20T10:28:12.625Z,23.20
2019-03-20T10:30:47.483Z,26.67
2019-03-20T10:33:20.056Z,22.20
2019-03-20T10:35:52.015Z,27.60
2019-03-20T10:38:26.856Z,23.07
2019-03-20T10:41:01.224Z,26.50
2019-03-20T10:43:35.720Z,24.90
2019-03-20T10:46:08.682Z,27.27
2019-03-20T10:48:41.575Z,17.37
2019-03-20T10:51:13.714Z,16.45
2019-03-20T10:53:45.484Z,11.90
2019-03-20T10:56:17.219Z,12.90
2019-03-20T10:58:49.233Z,12.80
2019-03-20T11:01:21.166Z,12.70
2019-03-20T11:03:53.348Z,17.17
2019-03-20T11:06:25.071Z,10.00
2019-03-20T11:08:56.870Z,11.43
2019-03-20T11:11:28.913Z,11.17
2019-03-20T11:14:03.163Z,17.17
2019-03-20T11:16:34.881Z,11.70
2019-03-20T11:19:06.605Z,7.83
2019-03-20T11:21:39.998Z,7.87
2019-03-20T11:24:11.841Z,11.18
2019-03-20T11:26:47.132Z,16.80
2019-03-20T11:29:21.740Z,10.63
2019-03-20T11:31:54.015Z,12.83
2019-03-20T11:34:28.655Z,11.20
2019-03-20T11:37:00.441Z,14.50
2019-03-20T11:39:35.051Z,12.40
2019-03-20T11:42:06.912Z,9.60
2019-03-20T11:44:38.645Z,8.77
2019-03-20T11:47:11.378Z,8.55
2019-03-20T11:49:43.027Z,9.27
2019-03-20T11:52:15.044Z,10.63
2019-03-20T11:54:47.715Z,9.93
2019-03-20T11:57:21.659Z,11.73
2019-03-20T11:59:54.658Z,17.37
2019-03-20T12:02:28.482Z,14.37
2019-03-20T12:04:59.869Z,10.27
2019-03-20T12:07:34.042Z,10.20
2019-03-20T12:10:07.016Z,13.28
2019-03-20T12:12:38.941Z,8.67
2019-03-20T12:15:11.087Z,13.22
2019-03-20T12:17:43.061Z,11.07
2019-03-20T12:20:17.309Z,15.35
2019-03-20T12:22:49.245Z,13.27
2019-03-20T12:25:23.862Z,18.47
2019-03-20T12:27:55.956Z,18.73
2019-03-20T12:30:30.496Z,15.43
2019-03-20T12:33:02.468Z,13.83
2019-03-20T12:35:34.411Z,14.47
2019-03-20T12:38:14.164Z,12.17
2019-03-20T12:40:40.328Z,16.23
2019-03-20T12:43:13.826Z,15.13
2019-03-20T12:45:45.452Z,15.77
2019-03-20T12:48:17.190Z,16.77
2019-03-20T12:50:48.950Z,12.33
2019-03-20T12:53:21.066Z,14.03
2019-03-20T12:55:53.187Z,13.80
2019-03-20T12:58:26.626Z,13.57
2019-03-20T13:00:58.573Z,14.53
2019-03-20T13:03:30.853Z,13.40
2019-03-20T13:06:02.852Z,13.03
2019-03-20T13:08:35.068Z,16.77
2019-03-20T13:11:06.951Z,16.47
2019-03-20T13:13:38.867Z,12.87
2019-03-20T13:16:10.885Z,11.43
2019-03-20T13:18:43.770Z,16.27
2019-03-20T13:21:15.486Z,18.43
2019-03-20T13:23:47.278Z,14.80
2019-03-20T13:26:19.322Z,12.37
2019-03-20T13:28:51.016Z,12.93
2019-03-20T13:31:23.965Z,15.27
2019-03-20T13:33:56.412Z,16.90
2019-03-20T13:36:27.994Z,16.87
2019-03-20T13:39:00.987Z,15.33
2019-03-20T13:41:35.973Z,17.13
2019-03-20T13:44:07.878Z,16.77
2019-03-20T13:46:40.097Z,15.47
2019-03-20T13:49:12.207Z,16.47
2019-03-20T13:51:43.833Z,13.37
2019-03-20T13:54:15.529Z,13.40
2019-03-20T13:56:47.276Z,12.97
2019-03-20T13:59:19.247Z,14.80
2019-03-20T14:01:51.086Z,17.17
2019-03-20T14:04:22.891Z,18.60
2019-03-20T14:06:54.700Z,16.40
2019-03-20T14:09:27.408Z,15.90
2019-03-20T14:12:01.696Z,13.67
2019-03-20T14:14:33.466Z,13.93
2019-03-20T14:17:05.395Z,16.13
2019-03-20T14:19:37.490Z,18.77
2019-03-20T14:22:09.745Z,16.17
2019-03-20T14:24:41.477Z,19.73
2019-03-20T14:27:13.346Z,25.10
2019-03-20T14:29:45.074Z,33.83
2019-03-20T14:32:19.091Z,14.73
2019-03-20T14:34:50.775Z,15.73
2019-03-20T14:37:22.859Z,15.10
2019-03-20T14:39:54.747Z,27.43
2019-03-20T14:42:26.404Z,36.57
2019-03-20T14:44:58.721Z,15.17
2019-03-20T14:47:31.078Z,19.17
2019-03-20T14:50:03.410Z,17.93
2019-03-20T14:52:35.241Z,14.63
2019-03-20T14:55:08.118Z,19.63
2019-03-20T14:57:39.985Z,24.07
2019-03-20T15:00:15.204Z,22.17
2019-03-20T15:02:47.930Z,16.10
2019-03-20T15:05:19.557Z,23.47
2019-03-20T15:07:51.263Z,21.27
2019-03-20T15:10:24.541Z,16.37
2019-03-20T15:12:56.331Z,19.50
2019-03-20T15:15:43.325Z,16.13
2019-03-20T15:18:15.304Z,22.60
2019-03-20T15:20:47.245Z,18.87
2019-03-20T15:23:19.036Z,16.43
2019-03-20T15:25:50.896Z,15.47
2019-03-20T15:28:22.765Z,14.90
2019-03-20T15:30:55.097Z,18.27
2019-03-20T15:33:27.360Z,20.83
2019-03-20T15:36:00.283Z,19.60
2019-03-20T15:38:33.927Z,20.10
2019-03-20T15:41:05.982Z,18.87
2019-03-20T15:43:37.567Z,20.53
2019-03-20T15:46:10.158Z,19.83
2019-03-20T15:48:43.060Z,17.27
2019-03-20T15:51:14.898Z,16.73
2019-03-20T15:53:47.026Z,16.17
2019-03-20T15:56:20.479Z,14.43
2019-03-20T15:58:53.542Z,19.13
2019-03-20T16:01:25.578Z,16.10
2019-03-20T16:03:57.182Z,17.93
2019-03-20T16:06:30.008Z,15.93
2019-03-20T16:09:02.155Z,17.37
2019-03-20T16:11:35.205Z,13.97
2019-03-20T16:14:07.129Z,16.03
2019-03-20T16:16:39.777Z,17.87
2019-03-20T16:19:11.644Z,14.53
2019-03-20T16:21:43.402Z,20.63
2019-03-20T16:24:16.818Z,16.07
2019-03-20T16:26:48.446Z,17.00
2019-03-20T16:29:20.023Z,20.33
2019-03-20T16:31:51.914Z,17.90
2019-03-20T16:34:23.659Z,15.77
2019-03-20T16:36:55.476Z,21.20
2019-03-20T16:39:27.463Z,15.20
2019-03-20T16:42:01.150Z,17.50
2019-03-20T16:44:33.507Z,20.33
2019-03-20T16:47:05.492Z,18.73
2019-03-20T16:49:37.326Z,18.40
2019-03-20T16:52:09.426Z,19.67
2019-03-20T16:54:41.270Z,17.77
2019-03-20T16:57:13.038Z,18.63
2019-03-20T16:59:44.883Z,18.47
2019-03-20T17:02:17.788Z,16.43
2019-03-20T17:04:49.407Z,16.97
2019-03-20T17:07:21.564Z,20.67
2019-03-20T17:09:53.186Z,24.53
2019-03-20T17:12:26.362Z,18.00
2019-03-20T17:14:58.157Z,16.83
2019-03-20T17:17:31.163Z,16.37
2019-03-20T17:20:04.003Z,22.57
2019-03-20T17:22:41.940Z,22.80
2019-03-20T17:25:10.195Z,20.40
2019-03-20T17:27:43.256Z,16.67
2019-03-20T17:30:26.403Z,23.27
2019-03-20T17:32:58.165Z,19.40
2019-03-20T17:35:30.018Z,23.23
2019-03-20T17:38:02.087Z,21.83
2019-03-20T17:40:34.579Z,18.13
2019-03-20T17:43:07.346Z,20.17
2019-03-20T17:45:40.473Z,19.93
2019-03-20T17:48:12.371Z,17.93
2019-03-20T17:50:44.127Z,18.20
2019-03-20T17:53:16.059Z,23.53
2019-03-20T17:55:48.946Z,18.00
2019-03-20T17:58:20.924Z,24.00
2019-03-20T18:00:53.774Z,26.40
2019-03-20T18:03:25.646Z,23.57
2019-03-20T18:05:57.301Z,25.27
2019-03-20T18:08:28.946Z,28.13
2019-03-20T18:11:00.584Z,22.33
2019-03-20T18:13:32.291Z,31.93
2019-03-20T18:16:04.185Z,29.70
2019-03-20T18:18:35.835Z,27.00
2019-03-20T18:21:07.653Z,35.00
2019-03-20T18:23:39.627Z,32.53
2019-03-20T18:26:11.454Z,42.47
2019-03-20T18:28:43.072Z,50.00
2019-03-20T18:31:14.969Z,49.73
2019-03-20T18:33:47.063Z,50.00
2019-03-20T18:36:19.975Z,59.67
2019-03-20T18:38:51.793Z,54.77
2019-03-20T18:41:23.626Z,44.25
2019-03-20T18:43:56.728Z,50.77
2019-03-20T18:46:28.481Z,53.20
2019-03-20T18:49:00.148Z,49.83
2019-03-20T18:51:31.858Z,49.10
2019-03-20T18:54:03.968Z,40.37
2019-03-20T18:56:36.262Z,45.00
2019-03-20T18:59:07.937Z,45.47
2019-03-20T19:01:39.922Z,41.23
2019-03-20T19:04:11.845Z,43.17
2019-03-20T19:06:43.966Z,45.63
2019-03-20T19:09:15.822Z,50.43
2019-03-20T19:11:47.574Z,55.27
2019-03-20T19:14:20.529Z,61.15
2019-03-20T19:16:52.367Z,61.87
2019-03-20T19:19:24.084Z,64.47
2019-03-20T19:21:55.726Z,57.83
2019-03-20T19:24:27.666Z,57.23
2019-03-20T19:26:59.328Z,58.37
2019-03-20T19:29:30.975Z,56.17
2019-03-20T19:32:03.902Z,51.33
2019-03-20T19:34:35.845Z,52.07
2019-03-20T19:37:07.632Z,56.90
2019-03-20T19:39:39.354Z,49.27
2019-03-20T19:42:19.651Z,54.07
2019-03-20T19:44:45.515Z,47.80
2019-03-20T19:47:17.418Z,58.17
2019-03-20T19:49:49.072Z,64.07
2019-03-20T19:52:21.815Z,73.05
2019-03-20T19:54:53.398Z,80.53
2019-03-20T19:57:25.129Z,79.53
2019-03-20T19:59:57.123Z,80.20
2019-03-20T20:02:28.722Z,78.70
2019-03-20T20:05:00.471Z,66.20
2019-03-20T20:07:32.056Z,76.13
2019-03-20T20:10:03.919Z,80.83
2019-03-20T20:12:35.582Z,75.73
2019-03-20T20:15:10.368Z,76.80
2019-03-20T20:17:42.285Z,80.40
2019-03-20T20:20:16.908Z,77.20
2019-03-20T20:22:48.627Z,80.50
2019-03-20T20:25:21.207Z,76.47
2019-03-20T20:27:52.910Z,74.60
2019-03-20T20:30:24.828Z,76.73
2019-03-20T20:32:56.490Z,75.17
2019-03-20T20:35:28.300Z,73.77
2019-03-20T20:38:00.310Z,76.40
2019-03-20T20:40:32.184Z,68.10
2019-03-20T20:43:03.796Z,72.27
2019-03-20T20:45:35.832Z,67.37
2019-03-20T20:48:07.645Z,60.17
2019-03-20T20:50:39.475Z,61.57
2019-03-20T20:53:11.284Z,69.50
2019-03-20T20:55:42.914Z,71.30
2019-03-20T20:58:15.041Z,74.20
2019-03-20T21:00:46.738Z,72.87
2019-03-20T21:03:18.911Z,72.47
2019-03-20T21:05:50.505Z,76.07
2019-03-20T21:08:22.281Z,74.03
2019-03-20T21:10:54.052Z,76.60
2019-03-20T21:13:25.641Z,80.53
2019-03-20T21:16:00.601Z,73.50
2019-03-20T21:19:16.053Z,72.00
2019-03-20T21:22:28.715Z,71.53
2019-03-20T21:25:00.965Z,70.27
2019-03-20T21:28:13.290Z,69.40
2019-03-20T21:31:02.141Z,72.63
2019-03-20T21:34:29.610Z,80.17
2019-03-20T21:37:30.849Z,69.17
2019-03-20T21:40:03.025Z,73.60
2019-03-20T21:43:10.989Z,71.40
2019-03-20T21:46:00.817Z,72.00
2019-03-20T21:48:33.121Z,72.60
2019-03-20T21:51:16.980Z,74.77
2019-03-20T21:54:42.870Z,76.23
2019-03-20T21:57:52.565Z,78.07
2019-03-20T22:01:00.711Z,78.20
2019-03-20T22:03:33.506Z,81.17
2019-03-20T22:06:51.623Z,77.05
2019-03-20T22:10:15.972Z,80.30
2019-03-20T22:13:00.487Z,81.47
2019-03-20T22:16:19.332Z,84.93
2019-03-20T22:19:49.831Z,91.43
2019-03-20T22:23:05.956Z,103.47
2019-03-20T22:26:24.850Z,93.58
2019-03-20T22:29:22.040Z,94.70
2019-03-20T22:32:31.398Z,94.13
2019-03-20T22:35:30.903Z,105.57
2019-03-20T22:38:05.135Z,109.07
2019-03-20T22:41:21.665Z,99.50
2019-03-20T22:43:58.196Z,95.90
2019-03-20T22:47:19.724Z,81.37
2019-03-20T22:50:34.589Z,81.17
2019-03-20T22:53:59.577Z,87.43
2019-03-20T22:57:14.655Z,77.07
2019-03-20T22:59:46.965Z,86.07
2019-03-20T23:02:27.208Z,85.20
2019-03-20T23:05:00.601Z,94.53
2019-03-20T23:07:33.021Z,99.57
2019-03-20T23:10:07.760Z,94.63
2019-03-20T23:12:40.480Z,91.90
2019-03-20T23:15:15.853Z,87.42
2019-03-20T23:17:48.183Z,98.30
2019-03-20T23:20:22.845Z,96.53
2019-03-20T23:22:55.189Z,84.73
2019-03-20T23:25:28.056Z,89.60
2019-03-20T23:28:00.421Z,93.27
2019-03-20T23:30:32.970Z,84.70
2019-03-20T23:33:05.351Z,83.57
2019-03-20T23:35:37.872Z,88.33
2019-03-20T23:38:10.312Z,93.27
2019-03-20T23:40:42.795Z,99.13
2019-03-20T23:43:15.248Z,116.30
2019-03-20T23:45:47.531Z,126.67
2019-03-20T23:48:30.774Z,135.03
2019-03-20T23:51:06.521Z,114.40
2019-03-20T23:53:43.115Z,96.70
2019-03-20T23:56:15.471Z,85.70
2019-03-20T23:58:48.047Z,94.17
